sensor_id;sensor_type;location;lat;lon;timestamp;P1;durP1;ratioP1;P2;durP2;ratioP2
69253;SDS011;56364;41.816;12.448;2023-06-24T00:10:00;29.20;;;5.45;;
69253;SDS011;56364;41.816;12.448;2023-06-24T00:12:29;21.70;;;5.60;;
69253;SDS011;56364;41.816;12.448;2023-06-24T00:15:05;25.70;;;7.03;;
69253;SDS011;56364;41.816;12.448;2023-06-24T00:17:31;17.13;;;4.78;;
69253;SDS011;56364;41.816;12.448;2023-06-24T00:19:58;18.95;;;5.03;;
69253;SDS011;56364;41.816;12.448;2023-06-24T00:22:24;18.50;;;5.03;;
69253;SDS011;56364;41.816;12.448;2023-06-24T00:24:51;15.02;;;4.38;;
69253;SDS011;56364;41.816;12.448;2023-06-24T00:27:17;22.13;;;4.95;;
69253;SDS011;56364;41.816;12.448;2023-06-24T00:29:43;15.43;;;5.20;;
69253;SDS011;56364;41.816;12.448;2023-06-24T00:32:09;25.15;;;5.35;;
69253;SDS011;56364;41.816;12.448;2023-06-24T00:34:35;25.23;;;5.07;;
69253;SDS011;56364;41.816;12.448;2023-06-24T00:37:01;23.90;;;5.13;;
69253;SDS011;56364;41.816;12.448;2023-06-24T00:39:28;25.85;;;6.18;;
69253;SDS011;56364;41.816;12.448;2023-06-24T00:41:54;22.90;;;5.25;;
69253;SDS011;56364;41.816;12.448;2023-06-24T00:44:21;25.33;;;5.05;;
69253;SDS011;56364;41.816;12.448;2023-06-24T00:46:47;20.65;;;5.05;;
69253;SDS011;56364;41.816;12.448;2023-06-24T00:49:14;25.23;;;5.13;;
69253;SDS011;56364;41.816;12.448;2023-06-24T00:51:41;19.75;;;5.05;;
69253;SDS011;56364;41.816;12.448;2023-06-24T00:54:12;21.92;;;5.38;;
69253;SDS011;56364;41.816;12.448;2023-06-24T00:57:04;20.25;;;5.40;;
69253;SDS011;56364;41.816;12.448;2023-06-24T00:59:31;21.92;;;5.07;;
69253;SDS011;56364;41.816;12.448;2023-06-24T01:01:57;25.63;;;5.25;;
69253;SDS011;56364;41.816;12.448;2023-06-24T01:04:27;23.13;;;6.60;;
69253;SDS011;56364;41.816;12.448;2023-06-24T01:06:54;29.88;;;6.45;;
69253;SDS011;56364;41.816;12.448;2023-06-24T01:09:20;24.00;;;5.82;;
69253;SDS011;56364;41.816;12.448;2023-06-24T01:11:47;30.70;;;6.25;;
69253;SDS011;56364;41.816;12.448;2023-06-24T01:14:13;25.42;;;5.70;;
69253;SDS011;56364;41.816;12.448;2023-06-24T01:16:53;32.63;;;6.90;;
69253;SDS011;56364;41.816;12.448;2023-06-24T01:22:26;23.27;;;5.95;;
69253;SDS011;56364;41.816;12.448;2023-06-24T01:25:40;27.40;;;6.85;;
69253;SDS011;56364;41.816;12.448;2023-06-24T01:32:55;32.25;;;6.75;;
69253;SDS011;56364;41.816;12.448;2023-06-24T01:35:28;19.45;;;5.20;;
69253;SDS011;56364;41.816;12.448;2023-06-24T01:37:57;30.33;;;6.60;;
69253;SDS011;56364;41.816;12.448;2023-06-24T01:40:37;27.05;;;5.78;;
69253;SDS011;56364;41.816;12.448;2023-06-24T01:43:10;21.77;;;5.53;;
69253;SDS011;56364;41.816;12.448;2023-06-24T01:45:48;23.25;;;5.38;;
69253;SDS011;56364;41.816;12.448;2023-06-24T01:48:25;21.50;;;5.65;;
69253;SDS011;56364;41.816;12.448;2023-06-24T01:50:58;19.27;;;5.70;;
69253;SDS011;56364;41.816;12.448;2023-06-24T01:53:24;22.17;;;5.55;;
69253;SDS011;56364;41.816;12.448;2023-06-24T02:01:04;18.83;;;5.07;;
69253;SDS011;56364;41.816;12.448;2023-06-24T02:03:32;20.60;;;5.15;;
69253;SDS011;56364;41.816;12.448;2023-06-24T02:05:59;17.73;;;5.45;;
69253;SDS011;56364;41.816;12.448;2023-06-24T02:08:26;21.65;;;6.05;;
69253;SDS011;56364;41.816;12.448;2023-06-24T02:10:54;29.05;;;5.53;;
69253;SDS011;56364;41.816;12.448;2023-06-24T02:13:21;25.05;;;5.57;;
69253;SDS011;56364;41.816;12.448;2023-06-24T02:15:47;23.05;;;5.68;;
69253;SDS011;56364;41.816;12.448;2023-06-24T02:18:15;21.45;;;6.22;;
69253;SDS011;56364;41.816;12.448;2023-06-24T02:20:42;15.60;;;5.05;;
69253;SDS011;56364;41.816;12.448;2023-06-24T02:23:09;26.73;;;6.90;;
69253;SDS011;56364;41.816;12.448;2023-06-24T02:25:36;22.38;;;5.38;;
69253;SDS011;56364;41.816;12.448;2023-06-24T02:28:06;18.08;;;5.00;;
69253;SDS011;56364;41.816;12.448;2023-06-24T02:30:34;26.00;;;4.85;;
69253;SDS011;56364;41.816;12.448;2023-06-24T02:33:00;27.23;;;6.55;;
69253;SDS011;56364;41.816;12.448;2023-06-24T02:35:27;25.65;;;6.07;;
69253;SDS011;56364;41.816;12.448;2023-06-24T02:37:53;27.45;;;5.43;;
69253;SDS011;56364;41.816;12.448;2023-06-24T02:40:19;26.95;;;5.55;;
69253;SDS011;56364;41.816;12.448;2023-06-24T02:42:45;23.88;;;5.88;;
69253;SDS011;56364;41.816;12.448;2023-06-24T02:45:11;28.55;;;6.82;;
69253;SDS011;56364;41.816;12.448;2023-06-24T02:47:38;17.60;;;6.13;;
69253;SDS011;56364;41.816;12.448;2023-06-24T02:50:05;32.63;;;6.82;;
69253;SDS011;56364;41.816;12.448;2023-06-24T02:52:33;26.02;;;6.72;;
69253;SDS011;56364;41.816;12.448;2023-06-24T02:55:02;24.63;;;7.78;;
69253;SDS011;56364;41.816;12.448;2023-06-24T02:57:31;22.30;;;6.45;;
69253;SDS011;56364;41.816;12.448;2023-06-24T02:59:57;32.15;;;6.93;;
69253;SDS011;56364;41.816;12.448;2023-06-24T03:02:23;22.95;;;6.25;;
69253;SDS011;56364;41.816;12.448;2023-06-24T03:04:50;20.48;;;5.35;;
69253;SDS011;56364;41.816;12.448;2023-06-24T03:07:22;24.58;;;6.32;;
69253;SDS011;56364;41.816;12.448;2023-06-24T03:09:48;31.25;;;7.20;;
69253;SDS011;56364;41.816;12.448;2023-06-24T03:12:14;23.17;;;5.80;;
69253;SDS011;56364;41.816;12.448;2023-06-24T03:14:43;20.42;;;5.85;;
69253;SDS011;56364;41.816;12.448;2023-06-24T03:17:09;19.05;;;6.85;;
69253;SDS011;56364;41.816;12.448;2023-06-24T03:19:36;24.65;;;6.03;;
69253;SDS011;56364;41.816;12.448;2023-06-24T03:22:03;23.73;;;5.97;;
69253;SDS011;56364;41.816;12.448;2023-06-24T03:24:29;23.75;;;6.07;;
69253;SDS011;56364;41.816;12.448;2023-06-24T03:26:55;25.63;;;6.70;;
69253;SDS011;56364;41.816;12.448;2023-06-24T03:29:25;28.30;;;6.65;;
69253;SDS011;56364;41.816;12.448;2023-06-24T03:31:51;24.05;;;6.45;;
69253;SDS011;56364;41.816;12.448;2023-06-24T03:34:17;23.88;;;6.80;;
69253;SDS011;56364;41.816;12.448;2023-06-24T03:36:43;17.33;;;6.68;;
69253;SDS011;56364;41.816;12.448;2023-06-24T03:39:09;18.13;;;6.68;;
69253;SDS011;56364;41.816;12.448;2023-06-24T03:41:35;17.42;;;6.20;;
69253;SDS011;56364;41.816;12.448;2023-06-24T03:44:01;17.30;;;7.32;;
69253;SDS011;56364;41.816;12.448;2023-06-24T03:46:28;18.23;;;6.88;;
69253;SDS011;56364;41.816;12.448;2023-06-24T03:48:58;25.25;;;7.63;;
69253;SDS011;56364;41.816;12.448;2023-06-24T03:51:25;26.15;;;6.65;;
69253;SDS011;56364;41.816;12.448;2023-06-24T03:53:51;24.33;;;7.03;;
69253;SDS011;56364;41.816;12.448;2023-06-24T03:56:18;21.30;;;6.32;;
69253;SDS011;56364;41.816;12.448;2023-06-24T03:58:53;25.15;;;7.05;;
69253;SDS011;56364;41.816;12.448;2023-06-24T04:01:19;26.15;;;7.10;;
69253;SDS011;56364;41.816;12.448;2023-06-24T04:03:45;26.20;;;7.28;;
69253;SDS011;56364;41.816;12.448;2023-06-24T04:08:42;22.40;;;7.63;;
69253;SDS011;56364;41.816;12.448;2023-06-24T04:11:13;19.75;;;7.22;;
69253;SDS011;56364;41.816;12.448;2023-06-24T04:13:39;18.92;;;6.80;;
69253;SDS011;56364;41.816;12.448;2023-06-24T04:16:05;28.98;;;7.43;;
69253;SDS011;56364;41.816;12.448;2023-06-24T04:18:32;33.53;;;7.38;;
69253;SDS011;56364;41.816;12.448;2023-06-24T04:20:58;21.70;;;7.28;;
69253;SDS011;56364;41.816;12.448;2023-06-24T04:23:24;24.10;;;7.25;;
69253;SDS011;56364;41.816;12.448;2023-06-24T04:25:53;28.90;;;7.65;;
69253;SDS011;56364;41.816;12.448;2023-06-24T04:28:19;26.08;;;7.80;;
69253;SDS011;56364;41.816;12.448;2023-06-24T04:30:45;18.98;;;7.28;;
69253;SDS011;56364;41.816;12.448;2023-06-24T04:33:11;19.23;;;6.78;;
69253;SDS011;56364;41.816;12.448;2023-06-24T04:35:37;21.35;;;7.18;;
69253;SDS011;56364;41.816;12.448;2023-06-24T04:38:03;26.73;;;6.85;;
69253;SDS011;56364;41.816;12.448;2023-06-24T04:40:29;32.83;;;7.30;;
69253;SDS011;56364;41.816;12.448;2023-06-24T04:42:55;20.48;;;7.38;;
69253;SDS011;56364;41.816;12.448;2023-06-24T04:45:21;16.38;;;5.88;;
69253;SDS011;56364;41.816;12.448;2023-06-24T04:47:48;24.45;;;6.68;;
69253;SDS011;56364;41.816;12.448;2023-06-24T04:50:14;26.95;;;7.35;;
69253;SDS011;56364;41.816;12.448;2023-06-24T04:52:40;27.30;;;6.97;;
69253;SDS011;56364;41.816;12.448;2023-06-24T04:55:09;34.08;;;7.90;;
69253;SDS011;56364;41.816;12.448;2023-06-24T04:57:35;19.17;;;6.13;;
69253;SDS011;56364;41.816;12.448;2023-06-24T05:00:02;23.40;;;7.07;;
69253;SDS011;56364;41.816;12.448;2023-06-24T05:02:29;20.75;;;6.68;;
69253;SDS011;56364;41.816;12.448;2023-06-24T05:04:55;29.35;;;8.18;;
69253;SDS011;56364;41.816;12.448;2023-06-24T05:07:27;24.17;;;7.70;;
69253;SDS011;56364;41.816;12.448;2023-06-24T05:09:53;22.42;;;6.95;;
69253;SDS011;56364;41.816;12.448;2023-06-24T05:12:19;24.02;;;6.82;;
69253;SDS011;56364;41.816;12.448;2023-06-24T05:14:48;20.42;;;6.15;;
69253;SDS011;56364;41.816;12.448;2023-06-24T05:17:14;15.88;;;6.72;;
69253;SDS011;56364;41.816;12.448;2023-06-24T05:19:43;21.77;;;6.50;;
69253;SDS011;56364;41.816;12.448;2023-06-24T05:22:09;20.42;;;7.30;;
69253;SDS011;56364;41.816;12.448;2023-06-24T05:24:35;14.68;;;5.53;;
69253;SDS011;56364;41.816;12.448;2023-06-24T05:27:05;28.30;;;7.05;;
69253;SDS011;56364;41.816;12.448;2023-06-24T05:29:31;20.42;;;6.45;;
69253;SDS011;56364;41.816;12.448;2023-06-24T05:31:58;18.80;;;6.47;;
69253;SDS011;56364;41.816;12.448;2023-06-24T05:34:24;25.73;;;7.25;;
69253;SDS011;56364;41.816;12.448;2023-06-24T05:36:50;26.88;;;6.75;;
69253;SDS011;56364;41.816;12.448;2023-06-24T05:39:17;23.40;;;7.15;;
69253;SDS011;56364;41.816;12.448;2023-06-24T05:41:46;18.63;;;7.10;;
69253;SDS011;56364;41.816;12.448;2023-06-24T05:44:13;20.58;;;7.53;;
69253;SDS011;56364;41.816;12.448;2023-06-24T05:46:40;20.70;;;6.80;;
69253;SDS011;56364;41.816;12.448;2023-06-24T05:49:06;22.05;;;7.18;;
69253;SDS011;56364;41.816;12.448;2023-06-24T05:51:32;24.88;;;6.95;;
69253;SDS011;56364;41.816;12.448;2023-06-24T05:53:58;19.70;;;6.95;;
69253;SDS011;56364;41.816;12.448;2023-06-24T05:56:24;20.15;;;6.43;;
69253;SDS011;56364;41.816;12.448;2023-06-24T05:58:50;22.67;;;6.93;;
69253;SDS011;56364;41.816;12.448;2023-06-24T06:01:26;20.80;;;7.20;;
69253;SDS011;56364;41.816;12.448;2023-06-24T06:03:52;17.95;;;5.90;;
69253;SDS011;56364;41.816;12.448;2023-06-24T06:06:18;19.75;;;6.60;;
69253;SDS011;56364;41.816;12.448;2023-06-24T06:08:44;18.20;;;5.65;;
69253;SDS011;56364;41.816;12.448;2023-06-24T06:11:10;17.63;;;6.00;;
69253;SDS011;56364;41.816;12.448;2023-06-24T06:13:36;20.42;;;6.20;;
69253;SDS011;56364;41.816;12.448;2023-06-24T06:16:02;21.98;;;6.70;;
69253;SDS011;56364;41.816;12.448;2023-06-24T06:18:28;14.20;;;6.47;;
69253;SDS011;56364;41.816;12.448;2023-06-24T06:20:57;22.27;;;6.10;;
69253;SDS011;56364;41.816;12.448;2023-06-24T06:23:23;23.00;;;7.05;;
69253;SDS011;56364;41.816;12.448;2023-06-24T06:25:50;19.05;;;6.32;;
69253;SDS011;56364;41.816;12.448;2023-06-24T06:28:16;23.00;;;6.40;;
69253;SDS011;56364;41.816;12.448;2023-06-24T06:30:43;24.08;;;7.10;;
69253;SDS011;56364;41.816;12.448;2023-06-24T06:33:09;22.05;;;6.13;;
69253;SDS011;56364;41.816;12.448;2023-06-24T06:35:35;10.80;;;5.40;;
69253;SDS011;56364;41.816;12.448;2023-06-24T06:38:01;17.48;;;6.10;;
69253;SDS011;56364;41.816;12.448;2023-06-24T06:40:27;17.35;;;6.40;;
69253;SDS011;56364;41.816;12.448;2023-06-24T06:42:53;25.05;;;6.80;;
69253;SDS011;56364;41.816;12.448;2023-06-24T06:45:20;20.08;;;6.57;;
69253;SDS011;56364;41.816;12.448;2023-06-24T06:47:46;21.02;;;7.00;;
69253;SDS011;56364;41.816;12.448;2023-06-24T06:50:12;22.42;;;6.22;;
69253;SDS011;56364;41.816;12.448;2023-06-24T06:52:38;21.48;;;6.63;;
69253;SDS011;56364;41.816;12.448;2023-06-24T06:55:04;17.33;;;6.13;;
69253;SDS011;56364;41.816;12.448;2023-06-24T06:57:30;19.23;;;6.03;;
69253;SDS011;56364;41.816;12.448;2023-06-24T06:59:57;14.88;;;5.65;;
69253;SDS011;56364;41.816;12.448;2023-06-24T07:02:23;19.48;;;5.78;;
69253;SDS011;56364;41.816;12.448;2023-06-24T07:04:49;18.20;;;6.15;;
69253;SDS011;56364;41.816;12.448;2023-06-24T07:07:16;19.05;;;6.07;;
69253;SDS011;56364;41.816;12.448;2023-06-24T07:09:42;19.45;;;5.75;;
69253;SDS011;56364;41.816;12.448;2023-06-24T07:12:08;14.85;;;5.68;;
69253;SDS011;56364;41.816;12.448;2023-06-24T07:14:34;16.42;;;6.15;;
69253;SDS011;56364;41.816;12.448;2023-06-24T07:17:00;10.35;;;4.65;;
69253;SDS011;56364;41.816;12.448;2023-06-24T07:19:26;20.50;;;5.35;;
69253;SDS011;56364;41.816;12.448;2023-06-24T07:21:52;20.85;;;5.32;;
69253;SDS011;56364;41.816;12.448;2023-06-24T07:24:18;12.23;;;5.07;;
69253;SDS011;56364;41.816;12.448;2023-06-24T07:26:47;12.45;;;5.50;;
69253;SDS011;56364;41.816;12.448;2023-06-24T07:29:13;17.58;;;6.50;;
69253;SDS011;56364;41.816;12.448;2023-06-24T07:31:45;21.13;;;4.95;;
69253;SDS011;56364;41.816;12.448;2023-06-24T07:34:18;10.88;;;5.00;;
69253;SDS011;56364;41.816;12.448;2023-06-24T07:36:47;21.85;;;4.85;;
69253;SDS011;56364;41.816;12.448;2023-06-24T07:39:19;14.02;;;5.35;;
69253;SDS011;56364;41.816;12.448;2023-06-24T07:41:52;13.35;;;5.28;;
69253;SDS011;56364;41.816;12.448;2023-06-24T07:44:21;15.73;;;4.72;;
69253;SDS011;56364;41.816;12.448;2023-06-24T07:46:47;17.13;;;4.72;;
69253;SDS011;56364;41.816;12.448;2023-06-24T07:49:16;8.95;;;4.75;;
69253;SDS011;56364;41.816;12.448;2023-06-24T07:51:42;12.65;;;4.75;;
69253;SDS011;56364;41.816;12.448;2023-06-24T07:54:10;16.05;;;5.80;;
69253;SDS011;56364;41.816;12.448;2023-06-24T07:56:36;20.85;;;5.60;;
69253;SDS011;56364;41.816;12.448;2023-06-24T07:59:02;18.73;;;5.60;;
69253;SDS011;56364;41.816;12.448;2023-06-24T08:01:28;14.88;;;4.80;;
69253;SDS011;56364;41.816;12.448;2023-06-24T08:03:54;17.65;;;5.25;;
69253;SDS011;56364;41.816;12.448;2023-06-24T08:06:24;19.80;;;5.25;;
69253;SDS011;56364;41.816;12.448;2023-06-24T08:08:50;18.13;;;5.50;;
69253;SDS011;56364;41.816;12.448;2023-06-24T08:11:16;26.65;;;5.60;;
69253;SDS011;56364;41.816;12.448;2023-06-24T08:13:42;13.50;;;5.50;;
69253;SDS011;56364;41.816;12.448;2023-06-24T08:16:08;14.73;;;6.35;;
69253;SDS011;56364;41.816;12.448;2023-06-24T08:18:34;12.57;;;4.47;;
69253;SDS011;56364;41.816;12.448;2023-06-24T08:21:00;21.58;;;6.05;;
69253;SDS011;56364;41.816;12.448;2023-06-24T08:23:30;17.27;;;4.90;;
69253;SDS011;56364;41.816;12.448;2023-06-24T08:25:56;18.73;;;5.47;;
69253;SDS011;56364;41.816;12.448;2023-06-24T08:28:22;10.93;;;4.57;;
69253;SDS011;56364;41.816;12.448;2023-06-24T08:30:48;13.93;;;4.70;;
69253;SDS011;56364;41.816;12.448;2023-06-24T08:33:14;14.57;;;4.85;;
69253;SDS011;56364;41.816;12.448;2023-06-24T08:35:40;13.65;;;4.85;;
69253;SDS011;56364;41.816;12.448;2023-06-24T08:38:06;18.00;;;4.90;;
69253;SDS011;56364;41.816;12.448;2023-06-24T08:40:32;13.40;;;4.68;;
69253;SDS011;56364;41.816;12.448;2023-06-24T08:42:58;14.95;;;4.88;;
69253;SDS011;56364;41.816;12.448;2023-06-24T08:45:24;16.98;;;4.78;;
69253;SDS011;56364;41.816;12.448;2023-06-24T08:47:50;14.00;;;5.03;;
69253;SDS011;56364;41.816;12.448;2023-06-24T08:50:16;17.85;;;5.32;;
69253;SDS011;56364;41.816;12.448;2023-06-24T08:52:45;10.88;;;5.35;;
69253;SDS011;56364;41.816;12.448;2023-06-24T08:55:12;12.93;;;5.10;;
69253;SDS011;56364;41.816;12.448;2023-06-24T08:57:39;14.00;;;5.40;;
69253;SDS011;56364;41.816;12.448;2023-06-24T09:00:06;11.52;;;4.82;;
69253;SDS011;56364;41.816;12.448;2023-06-24T09:02:35;16.35;;;5.03;;
69253;SDS011;56364;41.816;12.448;2023-06-24T09:05:03;18.38;;;5.93;;
69253;SDS011;56364;41.816;12.448;2023-06-24T09:07:29;16.00;;;5.35;;
69253;SDS011;56364;41.816;12.448;2023-06-24T09:09:55;12.75;;;4.70;;
69253;SDS011;56364;41.816;12.448;2023-06-24T09:12:23;13.98;;;4.90;;
69253;SDS011;56364;41.816;12.448;2023-06-24T09:14:49;16.42;;;5.78;;
69253;SDS011;56364;41.816;12.448;2023-06-24T09:17:16;13.82;;;5.03;;
69253;SDS011;56364;41.816;12.448;2023-06-24T09:19:47;19.98;;;5.05;;
69253;SDS011;56364;41.816;12.448;2023-06-24T09:22:13;14.38;;;5.18;;
69253;SDS011;56364;41.816;12.448;2023-06-24T09:24:48;15.68;;;5.25;;
69253;SDS011;56364;41.816;12.448;2023-06-24T09:27:14;11.65;;;4.70;;
69253;SDS011;56364;41.816;12.448;2023-06-24T09:29:41;11.55;;;4.40;;
69253;SDS011;56364;41.816;12.448;2023-06-24T09:32:08;16.80;;;5.20;;
69253;SDS011;56364;41.816;12.448;2023-06-24T09:34:34;15.82;;;4.57;;
69253;SDS011;56364;41.816;12.448;2023-06-24T09:37:00;16.27;;;5.00;;
69253;SDS011;56364;41.816;12.448;2023-06-24T09:39:27;15.60;;;4.78;;
69253;SDS011;56364;41.816;12.448;2023-06-24T09:41:58;14.18;;;5.53;;
69253;SDS011;56364;41.816;12.448;2023-06-24T09:44:25;10.75;;;4.28;;
69253;SDS011;56364;41.816;12.448;2023-06-24T09:46:51;19.55;;;4.78;;
69253;SDS011;56364;41.816;12.448;2023-06-24T09:49:17;9.30;;;4.18;;
69253;SDS011;56364;41.816;12.448;2023-06-24T09:51:45;9.20;;;3.78;;
69253;SDS011;56364;41.816;12.448;2023-06-24T09:54:11;9.00;;;4.00;;
69253;SDS011;56364;41.816;12.448;2023-06-24T09:56:39;10.35;;;4.15;;
69253;SDS011;56364;41.816;12.448;2023-06-24T09:59:05;9.15;;;3.95;;
69253;SDS011;56364;41.816;12.448;2023-06-24T10:01:37;7.28;;;3.35;;
69253;SDS011;56364;41.816;12.448;2023-06-24T10:04:04;15.63;;;4.30;;
69253;SDS011;56364;41.816;12.448;2023-06-24T10:06:30;12.80;;;4.47;;
69253;SDS011;56364;41.816;12.448;2023-06-24T10:08:56;8.75;;;3.95;;
69253;SDS011;56364;41.816;12.448;2023-06-24T10:11:23;8.95;;;3.45;;
69253;SDS011;56364;41.816;12.448;2023-06-24T10:13:49;11.00;;;3.92;;
69253;SDS011;56364;41.816;12.448;2023-06-24T10:16:15;14.35;;;4.18;;
69253;SDS011;56364;41.816;12.448;2023-06-24T10:18:43;7.88;;;3.50;;
69253;SDS011;56364;41.816;12.448;2023-06-24T10:21:09;8.75;;;3.97;;
69253;SDS011;56364;41.816;12.448;2023-06-24T10:44:53;7.10;;;3.45;;
69253;SDS011;56364;41.816;12.448;2023-06-24T10:47:25;7.88;;;3.90;;
69253;SDS011;56364;41.816;12.448;2023-06-24T10:49:52;7.35;;;3.35;;
69253;SDS011;56364;41.816;12.448;2023-06-24T10:52:22;12.20;;;3.72;;
69253;SDS011;56364;41.816;12.448;2023-06-24T10:54:49;7.97;;;3.30;;
69253;SDS011;56364;41.816;12.448;2023-06-24T10:57:23;10.45;;;3.58;;
69253;SDS011;56364;41.816;12.448;2023-06-24T10:59:51;11.15;;;3.28;;
69253;SDS011;56364;41.816;12.448;2023-06-24T11:02:26;6.25;;;3.22;;
69253;SDS011;56364;41.816;12.448;2023-06-24T11:05:00;7.38;;;3.20;;
69253;SDS011;56364;41.816;12.448;2023-06-24T11:07:47;6.40;;;3.13;;
69253;SDS011;56364;41.816;12.448;2023-06-24T11:10:20;8.73;;;3.17;;
69253;SDS011;56364;41.816;12.448;2023-06-24T11:12:52;7.75;;;2.92;;
69253;SDS011;56364;41.816;12.448;2023-06-24T11:15:32;7.40;;;3.13;;
69253;SDS011;56364;41.816;12.448;2023-06-24T11:18:02;6.03;;;3.13;;
69253;SDS011;56364;41.816;12.448;2023-06-24T11:23:22;7.85;;;3.03;;
69253;SDS011;56364;41.816;12.448;2023-06-24T11:25:48;8.00;;;2.92;;
69253;SDS011;56364;41.816;12.448;2023-06-24T11:28:17;8.40;;;3.05;;
69253;SDS011;56364;41.816;12.448;2023-06-24T11:30:44;8.95;;;3.13;;
69253;SDS011;56364;41.816;12.448;2023-06-24T11:33:10;14.88;;;3.83;;
69253;SDS011;56364;41.816;12.448;2023-06-24T11:35:36;6.63;;;2.70;;
69253;SDS011;56364;41.816;12.448;2023-06-24T11:38:02;11.27;;;3.97;;
69253;SDS011;56364;41.816;12.448;2023-06-24T11:40:30;16.67;;;3.83;;
69253;SDS011;56364;41.816;12.448;2023-06-24T11:42:57;12.10;;;3.50;;
69253;SDS011;56364;41.816;12.448;2023-06-24T11:45:23;10.00;;;3.63;;
69253;SDS011;56364;41.816;12.448;2023-06-24T11:47:50;11.88;;;3.70;;
69253;SDS011;56364;41.816;12.448;2023-06-24T11:50:17;9.85;;;3.88;;
69253;SDS011;56364;41.816;12.448;2023-06-24T11:52:44;10.77;;;3.50;;
69253;SDS011;56364;41.816;12.448;2023-06-24T11:55:18;12.35;;;3.67;;
69253;SDS011;56364;41.816;12.448;2023-06-24T11:57:58;7.55;;;3.10;;
69253;SDS011;56364;41.816;12.448;2023-06-24T12:00:26;11.00;;;4.15;;
69253;SDS011;56364;41.816;12.448;2023-06-24T12:02:53;15.32;;;3.50;;
69253;SDS011;56364;41.816;12.448;2023-06-24T12:05:23;10.73;;;3.13;;
69253;SDS011;56364;41.816;12.448;2023-06-24T12:07:53;5.57;;;2.45;;
69253;SDS011;56364;41.816;12.448;2023-06-24T12:10:20;8.70;;;3.17;;
69253;SDS011;56364;41.816;12.448;2023-06-24T12:12:46;7.97;;;2.67;;
69253;SDS011;56364;41.816;12.448;2023-06-24T12:15:12;5.78;;;2.67;;
69253;SDS011;56364;41.816;12.448;2023-06-24T12:17:38;8.45;;;2.63;;
69253;SDS011;56364;41.816;12.448;2023-06-24T12:20:04;6.55;;;2.42;;
69253;SDS011;56364;41.816;12.448;2023-06-24T12:22:31;6.63;;;2.47;;
69253;SDS011;56364;41.816;12.448;2023-06-24T12:24:57;7.10;;;2.95;;
69253;SDS011;56364;41.816;12.448;2023-06-24T12:27:23;5.10;;;2.70;;
69253;SDS011;56364;41.816;12.448;2023-06-24T12:29:50;5.78;;;2.63;;
69253;SDS011;56364;41.816;12.448;2023-06-24T12:32:28;5.28;;;2.53;;
69253;SDS011;56364;41.816;12.448;2023-06-24T12:34:54;9.90;;;3.00;;
69253;SDS011;56364;41.816;12.448;2023-06-24T12:37:21;7.40;;;2.67;;
69253;SDS011;56364;41.816;12.448;2023-06-24T12:39:47;5.38;;;2.10;;
69253;SDS011;56364;41.816;12.448;2023-06-24T12:42:16;5.60;;;2.28;;
69253;SDS011;56364;41.816;12.448;2023-06-24T12:44:42;9.18;;;2.78;;
69253;SDS011;56364;41.816;12.448;2023-06-24T12:47:08;5.97;;;2.50;;
69253;SDS011;56364;41.816;12.448;2023-06-24T12:49:34;4.95;;;2.38;;
69253;SDS011;56364;41.816;12.448;2023-06-24T12:52:00;6.82;;;2.40;;
69253;SDS011;56364;41.816;12.448;2023-06-24T12:54:27;5.95;;;2.58;;
69253;SDS011;56364;41.816;12.448;2023-06-24T12:56:53;7.47;;;2.60;;
69253;SDS011;56364;41.816;12.448;2023-06-24T12:59:19;4.78;;;2.47;;
69253;SDS011;56364;41.816;12.448;2023-06-24T13:01:45;8.55;;;2.55;;
69253;SDS011;56364;41.816;12.448;2023-06-24T13:04:11;7.38;;;2.30;;
69253;SDS011;56364;41.816;12.448;2023-06-24T13:06:37;6.03;;;2.60;;
69253;SDS011;56364;41.816;12.448;2023-06-24T13:09:04;7.72;;;2.15;;
69253;SDS011;56364;41.816;12.448;2023-06-24T13:11:30;8.50;;;2.40;;
69253;SDS011;56364;41.816;12.448;2023-06-24T13:13:57;15.48;;;2.70;;
69253;SDS011;56364;41.816;12.448;2023-06-24T13:16:29;5.03;;;1.98;;
69253;SDS011;56364;41.816;12.448;2023-06-24T13:18:55;4.45;;;2.08;;
69253;SDS011;56364;41.816;12.448;2023-06-24T13:21:21;6.30;;;2.60;;
69253;SDS011;56364;41.816;12.448;2023-06-24T13:23:48;8.63;;;2.67;;
69253;SDS011;56364;41.816;12.448;2023-06-24T13:26:15;7.38;;;2.53;;
69253;SDS011;56364;41.816;12.448;2023-06-24T13:28:41;5.82;;;2.40;;
69253;SDS011;56364;41.816;12.448;2023-06-24T13:31:08;10.80;;;2.38;;
69253;SDS011;56364;41.816;12.448;2023-06-24T13:33:34;7.57;;;2.20;;
69253;SDS011;56364;41.816;12.448;2023-06-24T13:36:00;5.35;;;2.17;;
69253;SDS011;56364;41.816;12.448;2023-06-24T13:38:27;4.85;;;2.42;;
69253;SDS011;56364;41.816;12.448;2023-06-24T13:40:53;6.50;;;2.13;;
69253;SDS011;56364;41.816;12.448;2023-06-24T13:43:19;7.20;;;2.50;;
69253;SDS011;56364;41.816;12.448;2023-06-24T13:45:45;6.20;;;2.47;;
69253;SDS011;56364;41.816;12.448;2023-06-24T13:48:13;3.92;;;1.80;;
69253;SDS011;56364;41.816;12.448;2023-06-24T13:50:39;6.25;;;2.50;;
69253;SDS011;56364;41.816;12.448;2023-06-24T13:53:05;5.20;;;2.47;;
69253;SDS011;56364;41.816;12.448;2023-06-24T13:55:31;4.28;;;1.77;;
69253;SDS011;56364;41.816;12.448;2023-06-24T13:57:57;5.80;;;2.03;;
69253;SDS011;56364;41.816;12.448;2023-06-24T14:03:02;7.75;;;1.90;;
69253;SDS011;56364;41.816;12.448;2023-06-24T14:05:28;7.35;;;2.00;;
69253;SDS011;56364;41.816;12.448;2023-06-24T14:07:54;5.07;;;2.13;;
69253;SDS011;56364;41.816;12.448;2023-06-24T14:10:23;6.10;;;2.15;;
69253;SDS011;56364;41.816;12.448;2023-06-24T14:12:49;5.70;;;2.03;;
69253;SDS011;56364;41.816;12.448;2023-06-24T14:15:15;4.68;;;2.13;;
69253;SDS011;56364;41.816;12.448;2023-06-24T14:20:10;5.68;;;2.60;;
69253;SDS011;56364;41.816;12.448;2023-06-24T14:22:36;5.00;;;2.20;;
69253;SDS011;56364;41.816;12.448;2023-06-24T14:25:02;6.03;;;1.90;;
69253;SDS011;56364;41.816;12.448;2023-06-24T14:27:28;8.75;;;2.05;;
69253;SDS011;56364;41.816;12.448;2023-06-24T14:29:54;5.53;;;2.25;;
69253;SDS011;56364;41.816;12.448;2023-06-24T14:32:20;8.65;;;2.22;;
69253;SDS011;56364;41.816;12.448;2023-06-24T14:34:46;11.27;;;3.20;;
69253;SDS011;56364;41.816;12.448;2023-06-24T14:37:12;6.15;;;2.70;;
69253;SDS011;56364;41.816;12.448;2023-06-24T14:39:39;7.47;;;2.75;;
69253;SDS011;56364;41.816;12.448;2023-06-24T14:42:06;9.38;;;2.90;;
69253;SDS011;56364;41.816;12.448;2023-06-24T14:44:32;9.48;;;2.92;;
69253;SDS011;56364;41.816;12.448;2023-06-24T14:46:58;8.48;;;2.78;;
69253;SDS011;56364;41.816;12.448;2023-06-24T14:49:24;6.60;;;2.83;;
69253;SDS011;56364;41.816;12.448;2023-06-24T14:51:52;6.78;;;2.80;;
69253;SDS011;56364;41.816;12.448;2023-06-24T14:54:18;7.95;;;2.80;;
69253;SDS011;56364;41.816;12.448;2023-06-24T14:56:44;7.93;;;2.55;;
69253;SDS011;56364;41.816;12.448;2023-06-24T14:59:12;6.93;;;2.85;;
69253;SDS011;56364;41.816;12.448;2023-06-24T15:01:38;5.95;;;2.80;;
69253;SDS011;56364;41.816;12.448;2023-06-24T15:04:06;8.07;;;3.10;;
69253;SDS011;56364;41.816;12.448;2023-06-24T15:06:32;4.35;;;2.40;;
69253;SDS011;56364;41.816;12.448;2023-06-24T15:08:58;7.38;;;2.63;;
69253;SDS011;56364;41.816;12.448;2023-06-24T15:11:24;5.53;;;2.97;;
69253;SDS011;56364;41.816;12.448;2023-06-24T15:13:50;7.85;;;3.20;;
69253;SDS011;56364;41.816;12.448;2023-06-24T15:16:16;8.18;;;2.90;;
69253;SDS011;56364;41.816;12.448;2023-06-24T15:18:46;7.95;;;3.30;;
69253;SDS011;56364;41.816;12.448;2023-06-24T15:21:14;6.72;;;2.83;;